Mehrabad Airport

Airport
ICAO code: 
OIII
IATA Code: 
THR
Summary
ICAO Region: 
MID
Territory: 
Location: 
Mehr Abad, Tehran
Serving: 
Tehran
Elevation: 
3962 ft
Coordinates: 
Aerial View: 
35° 41' 21" N, 51° 18' 49" E
Airport RE: 
Hot and High Operations
Metar
Observation
OIII 300200Z 00000KT 5000 HZ NSC 08/00 Q1022 A3018 NOSIG
Station
Tehran-Mehrabad
Date/Time
2021-11-30 02:00:00
Wind direction
Wind speed
00 kts
Lowest cloud amount
nil significant cloud
Temperature
8°C
Dew point
0°C
Humidity
56%
QNH
1022 hPa
Weather condition
n/a

Domestic airport serving Tehran, the capital of Iran.

Climatology

Cold Semi-arid climate (Köppen climate classification BSk).

Runways

Designator Length Width Surface Rops
9/27 474 40 CON No/No
11L/29R 3992 45 ASP Yes/Yes
11R/29L 4038 60 ASP Yes/Yes
Airport map: 
Aerial View: 

Accidents and Serious Incidents at or in the vicinity of OIII

SKYbrary Partners:

Safety knowledge contributed by: